SEMT

Eloy Alfaro International Airport

Airport
ICAO code
SEMT
IATA Code
MEC
Summary
ICAO Region
CARSAM
ICAO Territory
Location

, Manabi

Serving
Manta
Elevation
48 ft
Coordinates
0° 56' 46" S , 80° 40' 44" W
Metar
Observation
SEMT 271100Z 20007KT 9999 OVC020 21/19 Q1013 RMK A2993
Station
Manta
Date/Time
2022-09-27 11:00:00
Wind direction
200°
Wind speed
07 kts
Lowest cloud amount
overcast
Temperature
21°C
Dew point
19°C
Humidity
88%
QNH
1013 hPa
Weather condition
n/a

Runways

Designator Length Width Surface Rops
5/23 2860 45 ASP No/No

Airport map

Aerial View

SKYbrary Partners:

Safety knowledge contributed by: